createdAt,value
2018-05-06T00:00:45.606Z,28.40
2018-05-06T00:03:14.525Z,19.27
2018-05-06T00:05:43.463Z,22.00
2018-05-06T00:08:12.385Z,18.80
2018-05-06T00:10:41.304Z,20.70
2018-05-06T00:13:10.235Z,17.73
2018-05-06T00:15:39.170Z,23.90
2018-05-06T00:18:08.092Z,18.57
2018-05-06T00:20:37.025Z,20.40
2018-05-06T00:23:05.976Z,19.00
2018-05-06T00:25:34.892Z,22.27
2018-05-06T00:28:03.810Z,19.70
2018-05-06T00:30:32.748Z,20.77
2018-05-06T00:33:01.672Z,21.20
2018-05-06T00:35:30.620Z,18.90
2018-05-06T00:37:59.548Z,18.80
2018-05-06T00:40:28.465Z,24.57
2018-05-06T00:42:57.389Z,23.23
2018-05-06T00:45:26.332Z,19.73
2018-05-06T00:47:55.324Z,19.60
2018-05-06T00:50:24.245Z,19.10
2018-05-06T00:52:53.193Z,17.73
2018-05-06T00:55:22.123Z,18.10
2018-05-06T00:57:51.068Z,18.90
2018-05-06T01:00:19.986Z,16.63
2018-05-06T01:02:48.916Z,17.10
2018-05-06T01:05:17.837Z,18.37
2018-05-06T01:07:46.756Z,18.87
2018-05-06T01:10:15.689Z,16.80
2018-05-06T01:12:44.605Z,18.27
2018-05-06T01:15:13.537Z,19.37
2018-05-06T01:17:42.453Z,19.73
2018-05-06T01:20:11.369Z,21.40
2018-05-06T01:22:40.313Z,18.40
2018-05-06T01:25:09.236Z,18.37
2018-05-06T01:27:38.169Z,18.80
2018-05-06T01:30:07.104Z,19.20
2018-05-06T01:32:36.057Z,17.47
2018-05-06T01:35:04.995Z,19.30
2018-05-06T01:37:33.921Z,19.20
2018-05-06T01:40:02.847Z,17.90
2018-05-06T01:42:31.784Z,17.13
2018-05-06T01:45:00.729Z,18.20
2018-05-06T01:47:29.648Z,21.20
2018-05-06T01:49:58.577Z,17.57
2018-05-06T01:52:27.509Z,18.30
2018-05-06T01:54:56.429Z,17.70
2018-05-06T01:57:25.352Z,18.17
2018-05-06T01:59:54.304Z,20.10
2018-05-06T02:02:23.232Z,19.40
2018-05-06T02:04:52.164Z,17.67
2018-05-06T02:07:21.089Z,18.17
2018-05-06T02:09:50.013Z,18.90
2018-05-06T02:12:18.964Z,18.40
2018-05-06T02:14:47.888Z,18.43
2018-05-06T02:17:16.800Z,17.87
2018-05-06T02:19:45.735Z,18.27
2018-05-06T02:22:14.664Z,16.73
2018-05-06T02:24:43.604Z,18.10
2018-05-06T02:27:12.533Z,19.00
2018-05-06T02:29:41.452Z,17.43
2018-05-06T02:32:10.405Z,18.20
2018-05-06T02:34:39.332Z,18.00
2018-05-06T02:37:08.263Z,19.47
2018-05-06T02:39:37.181Z,18.87
2018-05-06T02:42:06.109Z,16.90
2018-05-06T02:44:35.024Z,19.30
2018-05-06T02:47:03.948Z,18.67
2018-05-06T02:49:32.881Z,18.50
2018-05-06T02:52:01.894Z,20.00
2018-05-06T02:54:30.832Z,18.70
2018-05-06T02:56:59.788Z,17.70
2018-05-06T02:59:28.720Z,17.00
2018-05-06T03:01:57.652Z,18.27
2018-05-06T03:04:26.580Z,19.37
2018-05-06T03:06:55.513Z,18.67
2018-05-06T03:09:24.440Z,17.50
2018-05-06T03:11:54.259Z,17.23
2018-05-06T03:14:23.211Z,18.40
2018-05-06T03:16:52.137Z,19.33
2018-05-06T03:19:21.073Z,17.00
2018-05-06T03:21:49.997Z,18.60
2018-05-06T03:24:18.925Z,17.80
2018-05-06T03:26:47.880Z,17.70
2018-05-06T03:29:16.796Z,17.57
2018-05-06T03:31:45.788Z,18.10
2018-05-06T03:34:14.725Z,17.37
2018-05-06T03:36:43.653Z,16.83
2018-05-06T03:39:12.941Z,19.07
2018-05-06T03:41:41.884Z,17.80
2018-05-06T03:44:10.817Z,17.80
2018-05-06T03:46:39.764Z,18.90
2018-05-06T03:49:08.709Z,20.83
2018-05-06T03:51:37.676Z,18.63
2018-05-06T03:54:06.620Z,18.97
2018-05-06T03:56:50.416Z,21.10
2018-05-06T04:02:29.388Z,17.30
2018-05-06T04:04:58.324Z,17.40
2018-05-06T04:07:27.247Z,17.30
2018-05-06T04:09:56.256Z,18.10
2018-05-06T04:12:25.184Z,17.60
2018-05-06T04:14:54.125Z,18.20
2018-05-06T04:17:23.049Z,17.80
2018-05-06T04:19:52.024Z,19.83
2018-05-06T04:22:20.961Z,20.07
2018-05-06T04:24:49.893Z,17.60
2018-05-06T04:27:19.144Z,17.77
2018-05-06T04:29:48.080Z,16.43
2018-05-06T04:32:18.076Z,19.07
2018-05-06T04:34:47.033Z,18.57
2018-05-06T04:37:15.960Z,18.50
2018-05-06T04:39:44.894Z,18.50
2018-05-06T04:42:13.825Z,20.30
2018-05-06T04:44:42.760Z,18.40
2018-05-06T04:47:11.697Z,19.07
2018-05-06T04:49:40.637Z,18.97
2018-05-06T04:52:09.558Z,19.60
2018-05-06T04:54:38.477Z,21.40
2018-05-06T04:57:07.404Z,18.63
2018-05-06T04:59:36.337Z,21.40
2018-05-06T05:02:05.258Z,19.27
2018-05-06T05:04:34.180Z,21.63
2018-05-06T05:07:03.440Z,25.13
2018-05-06T05:09:32.389Z,23.47
2018-05-06T05:12:01.317Z,20.30
2018-05-06T05:14:30.253Z,21.60
2018-05-06T05:16:59.187Z,22.37
2018-05-06T05:19:28.111Z,27.70
2018-05-06T05:21:57.369Z,23.93
2018-05-06T05:24:26.340Z,24.53
2018-05-06T05:26:55.258Z,25.80
2018-05-06T05:29:24.178Z,24.03
2018-05-06T05:31:53.108Z,25.80
2018-05-06T05:34:22.055Z,29.63
2018-05-06T05:36:51.020Z,24.13
2018-05-06T05:39:19.957Z,24.53
2018-05-06T05:41:48.896Z,24.80
2018-05-06T05:44:17.825Z,24.90
2018-05-06T05:46:46.748Z,24.90
2018-05-06T05:49:15.661Z,27.00
2018-05-06T05:51:44.596Z,26.47
2018-05-06T05:54:13.540Z,28.87
2018-05-06T05:56:42.472Z,24.20
2018-05-06T05:59:11.444Z,25.40
2018-05-06T06:01:40.365Z,26.17
2018-05-06T06:04:09.317Z,26.90
2018-05-06T06:06:38.249Z,26.40
2018-05-06T06:09:07.312Z,26.07
2018-05-06T06:11:36.251Z,31.40
2018-05-06T06:14:05.169Z,25.63
2018-05-06T06:16:34.108Z,197.30
2018-05-06T06:19:03.043Z,36.40
2018-05-06T06:21:32.068Z,34.70
2018-05-06T06:24:01.060Z,69.47
2018-05-06T06:26:29.984Z,32.20
2018-05-06T06:28:58.909Z,92.13
2018-05-06T06:31:27.836Z,130.13
2018-05-06T06:33:56.795Z,38.43
2018-05-06T06:36:26.025Z,41.47
2018-05-06T06:38:54.946Z,32.23
2018-05-06T06:41:23.864Z,30.60
2018-05-06T06:43:52.799Z,51.07
2018-05-06T06:46:21.732Z,64.43
2018-05-06T06:48:50.674Z,640.20
2018-05-06T06:51:19.596Z,95.43
2018-05-06T06:53:48.528Z,317.30
2018-05-06T06:56:17.464Z,183.43
2018-05-06T06:58:46.400Z,55.83
2018-05-06T07:01:15.331Z,81.57
2018-05-06T07:03:44.261Z,78.37
2018-05-06T07:06:13.193Z,131.23
2018-05-06T07:08:42.120Z,36.40
2018-05-06T07:11:11.055Z,74.53
2018-05-06T07:13:39.980Z,74.57
2018-05-06T07:16:08.922Z,77.70
2018-05-06T07:18:37.856Z,33.97
2018-05-06T07:21:06.880Z,62.07
2018-05-06T07:23:35.860Z,53.50
2018-05-06T07:26:04.784Z,39.60
2018-05-06T07:28:33.728Z,33.67
2018-05-06T07:31:02.736Z,36.20
2018-05-06T07:33:31.667Z,39.40
2018-05-06T07:36:00.584Z,34.80
2018-05-06T07:38:29.513Z,37.70
2018-05-06T07:40:58.445Z,33.93
2018-05-06T07:43:27.398Z,448.47
2018-05-06T07:45:56.364Z,244.17
2018-05-06T07:48:25.673Z,255.93
2018-05-06T07:50:54.635Z,128.40
2018-05-06T07:53:23.554Z,36.07
2018-05-06T07:55:52.522Z,105.27
2018-05-06T07:58:21.447Z,50.20
2018-05-06T08:00:50.463Z,32.90
2018-05-06T08:03:19.384Z,36.13
2018-05-06T08:05:48.374Z,35.70
2018-05-06T08:08:17.326Z,36.00
2018-05-06T08:10:46.335Z,33.90
2018-05-06T08:13:15.237Z,38.77
2018-05-06T08:15:44.220Z,39.00
2018-05-06T08:18:13.140Z,37.00
2018-05-06T08:20:42.064Z,45.33
2018-05-06T08:23:11.053Z,35.70
2018-05-06T08:25:39.972Z,32.67
2018-05-06T08:28:08.906Z,40.60
2018-05-06T08:30:37.831Z,34.43
2018-05-06T08:33:06.764Z,43.13
2018-05-06T08:35:35.696Z,42.83
2018-05-06T08:38:04.624Z,37.53
2018-05-06T08:40:33.569Z,34.97
2018-05-06T08:43:02.593Z,44.47
2018-05-06T08:45:31.578Z,35.50
2018-05-06T08:48:00.509Z,45.10
2018-05-06T08:50:29.445Z,41.40
2018-05-06T08:52:58.589Z,33.67
2018-05-06T08:55:27.515Z,34.17
2018-05-06T08:57:56.520Z,35.87
2018-05-06T09:00:25.456Z,190.00
2018-05-06T09:02:54.733Z,43.60
2018-05-06T09:05:23.658Z,48.00
2018-05-06T09:07:52.590Z,45.97
2018-05-06T09:10:21.515Z,48.40
2018-05-06T09:12:50.448Z,41.10
2018-05-06T09:15:19.413Z,39.20
2018-05-06T09:17:48.405Z,41.07
2018-05-06T09:20:17.345Z,48.33
2018-05-06T09:22:46.279Z,35.83
2018-05-06T09:25:15.197Z,38.47
2018-05-06T09:27:44.125Z,40.30
2018-05-06T09:30:13.063Z,37.57
2018-05-06T09:32:41.993Z,37.43
2018-05-06T09:35:10.920Z,37.53
2018-05-06T09:37:39.889Z,50.60
2018-05-06T09:40:08.893Z,60.70
2018-05-06T09:42:37.820Z,55.63
2018-05-06T09:45:06.765Z,41.50
2018-05-06T09:47:35.706Z,36.37
2018-05-06T09:50:04.640Z,38.07
2018-05-06T09:52:33.584Z,702.63
2018-05-06T09:55:02.525Z,307.70
2018-05-06T09:57:31.454Z,606.40
2018-05-06T10:00:00.389Z,502.83
2018-05-06T10:02:29.333Z,82.33
2018-05-06T10:04:58.271Z,214.30
2018-05-06T10:07:27.208Z,46.33
2018-05-06T10:09:56.156Z,313.93
2018-05-06T10:12:25.105Z,58.87
2018-05-06T10:14:54.028Z,125.20
2018-05-06T10:17:22.984Z,70.80
2018-05-06T10:19:51.913Z,71.27
2018-05-06T10:22:21.031Z,73.20
2018-05-06T10:24:49.956Z,81.97
2018-05-06T10:27:18.881Z,49.47
2018-05-06T10:29:47.833Z,74.90
2018-05-06T10:32:16.784Z,81.83
2018-05-06T10:34:45.710Z,36.90
2018-05-06T10:37:14.650Z,55.57
2018-05-06T10:39:43.574Z,56.83
2018-05-06T10:42:12.502Z,45.67
2018-05-06T10:44:41.449Z,39.47
2018-05-06T10:47:10.505Z,51.90
2018-05-06T10:49:39.403Z,62.33
2018-05-06T10:52:08.340Z,36.30
2018-05-06T10:54:37.267Z,23.97
2018-05-06T10:57:06.212Z,37.93
2018-05-06T10:59:35.144Z,35.17
2018-05-06T11:02:04.068Z,31.03
2018-05-06T11:04:32.990Z,31.23
2018-05-06T11:07:01.936Z,34.00
2018-05-06T11:09:30.861Z,27.27
2018-05-06T11:11:59.784Z,26.60
2018-05-06T11:14:28.704Z,20.30
2018-05-06T11:16:57.616Z,19.80
2018-05-06T11:19:26.589Z,24.37
2018-05-06T11:21:55.631Z,25.70
2018-05-06T11:24:24.557Z,25.53
2018-05-06T11:26:53.518Z,25.00
2018-05-06T11:29:22.467Z,21.87
2018-05-06T11:31:51.456Z,19.93
2018-05-06T11:34:20.392Z,26.57
2018-05-06T11:36:49.316Z,23.70
2018-05-06T11:39:18.313Z,20.40
2018-05-06T11:41:47.260Z,23.57
2018-05-06T11:44:16.184Z,20.23
2018-05-06T11:46:45.114Z,19.33
2018-05-06T11:49:14.093Z,23.13
2018-05-06T11:51:43.025Z,20.00
2018-05-06T11:54:11.965Z,22.80
2018-05-06T11:56:40.901Z,21.40
2018-05-06T11:59:09.960Z,23.13
2018-05-06T12:01:38.881Z,25.70
2018-05-06T12:04:08.025Z,25.63
2018-05-06T12:06:37.041Z,27.30
2018-05-06T12:09:07.252Z,25.13
2018-05-06T12:11:36.256Z,18.87
2018-05-06T12:14:05.184Z,29.07
2018-05-06T12:16:34.137Z,30.70
2018-05-06T12:19:03.421Z,25.70
2018-05-06T12:21:32.366Z,22.53
2018-05-06T12:24:01.428Z,26.10
2018-05-06T12:26:30.381Z,26.60
2018-05-06T12:28:59.313Z,27.53
2018-05-06T12:31:28.244Z,28.83
2018-05-06T12:33:57.171Z,25.10
2018-05-06T12:36:26.093Z,23.10
2018-05-06T12:38:55.009Z,26.63
2018-05-06T12:41:23.931Z,28.23
2018-05-06T12:43:52.849Z,27.80
2018-05-06T12:46:21.826Z,29.13
2018-05-06T12:48:50.768Z,22.93
2018-05-06T12:51:19.705Z,21.77
2018-05-06T12:53:48.624Z,19.30
2018-05-06T12:56:17.565Z,22.10
2018-05-06T12:58:46.512Z,22.63
2018-05-06T13:03:42.416Z,18.90
2018-05-06T13:06:11.381Z,20.23
2018-05-06T13:08:40.308Z,22.87
2018-05-06T13:11:09.232Z,20.60
2018-05-06T13:13:38.173Z,19.77
2018-05-06T13:16:07.129Z,21.30
2018-05-06T13:18:36.059Z,22.63
2018-05-06T13:21:04.985Z,21.57
2018-05-06T13:23:33.914Z,24.50
2018-05-06T13:26:02.833Z,24.73
2018-05-06T13:28:31.756Z,24.90
2018-05-06T13:31:00.684Z,21.30
2018-05-06T13:33:29.613Z,18.87
2018-05-06T13:35:58.568Z,18.70
2018-05-06T13:38:27.499Z,19.30
2018-05-06T13:40:56.454Z,20.40
2018-05-06T13:43:25.649Z,17.37
2018-05-06T13:45:54.884Z,21.33
2018-05-06T13:48:23.804Z,22.90
2018-05-06T13:50:52.736Z,21.77
2018-05-06T13:53:21.677Z,21.50
2018-05-06T13:55:50.607Z,17.80
2018-05-06T13:58:19.537Z,19.10
2018-05-06T14:00:48.526Z,16.13
2018-05-06T14:03:17.451Z,16.70
2018-05-06T14:05:46.444Z,15.87
2018-05-06T14:08:15.371Z,13.63
2018-05-06T14:10:44.305Z,13.43
2018-05-06T14:13:13.238Z,17.80
2018-05-06T14:15:42.244Z,11.83
2018-05-06T14:18:11.126Z,16.40
2018-05-06T14:20:40.052Z,11.20
2018-05-06T14:23:08.986Z,15.20
2018-05-06T14:25:38.256Z,16.00
2018-05-06T14:28:07.280Z,14.70
2018-05-06T14:30:36.269Z,16.13
2018-05-06T14:33:05.203Z,14.97
2018-05-06T14:35:34.132Z,15.73
2018-05-06T14:38:03.053Z,13.63
2018-05-06T14:40:31.988Z,12.97
2018-05-06T14:43:00.909Z,14.17
2018-05-06T14:45:29.825Z,16.40
2018-05-06T14:48:04.799Z,10.60
2018-05-06T14:50:33.724Z,16.40
2018-05-06T14:53:02.660Z,13.57
2018-05-06T14:55:31.588Z,16.73
2018-05-06T14:58:00.553Z,15.53
2018-05-06T15:00:29.813Z,13.53
2018-05-06T15:02:58.734Z,16.10
2018-05-06T15:05:27.676Z,648.53
2018-05-06T15:07:56.620Z,521.67
2018-05-06T15:10:25.629Z,95.33
2018-05-06T15:12:54.512Z,149.70
2018-05-06T15:15:23.457Z,436.17
2018-05-06T15:17:52.384Z,467.20
2018-05-06T15:20:21.337Z,328.83
2018-05-06T15:22:50.273Z,216.07
2018-05-06T15:25:19.242Z,273.47
2018-05-06T15:27:48.237Z,175.43
2018-05-06T15:30:17.210Z,138.63
2018-05-06T15:32:46.137Z,131.57
2018-05-06T15:35:15.069Z,66.70
2018-05-06T15:37:44.000Z,61.07
2018-05-06T15:40:12.929Z,46.77
2018-05-06T15:42:41.869Z,43.77
2018-05-06T15:45:10.787Z,47.30
2018-05-06T15:47:39.704Z,497.73
2018-05-06T15:50:08.675Z,322.40
2018-05-06T15:52:37.622Z,345.23
2018-05-06T15:55:06.568Z,199.47
2018-05-06T15:57:35.532Z,130.00
2018-05-06T16:00:04.459Z,114.77
2018-05-06T16:02:48.289Z,69.37
2018-05-06T16:05:17.220Z,479.27
2018-05-06T16:07:46.188Z,398.83
2018-05-06T16:10:15.135Z,495.10
2018-05-06T16:12:44.104Z,443.37
2018-05-06T16:15:13.044Z,357.47
2018-05-06T16:17:42.044Z,288.33
2018-05-06T16:20:10.984Z,604.63
2018-05-06T16:22:39.947Z,603.03
2018-05-06T16:25:08.901Z,155.20
2018-05-06T16:27:37.832Z,376.63
2018-05-06T16:30:06.787Z,301.47
2018-05-06T16:32:36.046Z,252.73
2018-05-06T16:35:04.971Z,176.97
2018-05-06T16:37:33.921Z,154.87
2018-05-06T16:40:02.857Z,104.57
2018-05-06T16:42:31.775Z,23.77
2018-05-06T16:45:00.732Z,51.97
2018-05-06T16:47:29.672Z,26.37
2018-05-06T16:49:58.609Z,33.30
2018-05-06T16:52:27.536Z,20.53
2018-05-06T16:54:56.485Z,29.10
2018-05-06T16:57:25.450Z,20.40
2018-05-06T16:59:54.377Z,24.00
2018-05-06T17:02:23.296Z,22.87
2018-05-06T17:04:52.230Z,24.60
2018-05-06T17:07:21.161Z,295.47
2018-05-06T17:09:50.084Z,431.00
2018-05-06T17:12:19.008Z,415.37
2018-05-06T17:14:47.942Z,298.33
2018-05-06T17:17:16.872Z,231.10
2018-05-06T17:19:45.842Z,105.00
2018-05-06T17:22:14.769Z,66.77
2018-05-06T17:24:43.713Z,159.50
2018-05-06T17:27:12.712Z,94.37
2018-05-06T17:29:41.640Z,85.83
2018-05-06T17:32:10.664Z,47.57
2018-05-06T17:34:39.649Z,77.40
2018-05-06T17:37:08.612Z,62.57
2018-05-06T17:39:37.560Z,43.77
2018-05-06T17:42:06.633Z,52.90
2018-05-06T17:44:35.568Z,24.13
2018-05-06T17:47:04.493Z,52.33
2018-05-06T17:49:33.418Z,40.60
2018-05-06T17:52:02.341Z,42.17
2018-05-06T17:54:31.269Z,45.10
2018-05-06T17:57:00.192Z,39.13
2018-05-06T17:59:29.110Z,35.53
2018-05-06T18:01:58.088Z,21.80
2018-05-06T18:04:27.155Z,21.00
2018-05-06T18:06:56.103Z,27.57
2018-05-06T18:09:25.220Z,31.73
2018-05-06T18:11:54.137Z,23.80
2018-05-06T18:14:23.092Z,30.20
2018-05-06T18:16:52.053Z,31.67
2018-05-06T18:19:20.991Z,27.13
2018-05-06T18:21:49.921Z,35.00
2018-05-06T18:24:18.867Z,31.30
2018-05-06T18:26:47.787Z,34.53
2018-05-06T18:29:16.813Z,29.10
2018-05-06T18:31:45.772Z,27.50
2018-05-06T18:34:14.708Z,28.50
2018-05-06T18:36:43.677Z,29.40
2018-05-06T18:39:12.598Z,27.23
2018-05-06T18:41:41.535Z,21.93
2018-05-06T18:44:10.493Z,29.70
2018-05-06T18:46:39.421Z,29.53
2018-05-06T18:49:08.343Z,25.93
2018-05-06T18:51:37.342Z,25.83
2018-05-06T18:54:06.335Z,20.17
2018-05-06T18:56:35.588Z,22.70
2018-05-06T18:59:04.600Z,28.60
2018-05-06T19:01:33.526Z,31.37
2018-05-06T19:04:02.469Z,29.47
2018-05-06T19:06:31.393Z,27.30
2018-05-06T19:09:00.311Z,28.67
2018-05-06T19:11:29.252Z,29.70
2018-05-06T19:13:58.190Z,25.97
2018-05-06T19:16:27.123Z,26.73
2018-05-06T19:18:56.053Z,19.70
2018-05-06T19:21:24.989Z,27.50
2018-05-06T19:23:53.916Z,27.80
2018-05-06T19:26:22.998Z,25.40
2018-05-06T19:28:51.939Z,25.40
2018-05-06T19:31:20.881Z,21.60
2018-05-06T19:33:50.625Z,19.53
2018-05-06T19:36:19.608Z,14.53
2018-05-06T19:38:48.701Z,12.57
2018-05-06T19:41:19.034Z,12.40
2018-05-06T19:43:48.096Z,23.47
2018-05-06T19:46:17.105Z,30.80
2018-05-06T19:48:46.120Z,17.47
2018-05-06T19:51:15.488Z,17.30
2018-05-06T19:53:44.438Z,16.97
2018-05-06T19:56:13.372Z,14.70
2018-05-06T19:58:42.344Z,21.80
2018-05-06T20:01:11.291Z,17.77
2018-05-06T20:03:40.235Z,16.00
2018-05-06T20:06:09.176Z,23.30
2018-05-06T20:08:38.180Z,486.80
2018-05-06T20:11:07.142Z,28.30
2018-05-06T20:13:36.093Z,75.77
2018-05-06T20:16:05.073Z,19.43
2018-05-06T20:18:34.020Z,18.77
2018-05-06T20:21:03.297Z,32.90
2018-05-06T20:23:32.337Z,38.73
2018-05-06T20:26:01.311Z,39.97
2018-05-06T20:28:31.213Z,34.47
2018-05-06T20:31:00.166Z,27.70
2018-05-06T20:33:29.101Z,40.77
2018-05-06T20:35:58.196Z,131.87
2018-05-06T20:38:27.226Z,24.30
2018-05-06T20:40:56.182Z,19.50
2018-05-06T20:43:25.120Z,19.20
2018-05-06T20:45:54.085Z,69.17
2018-05-06T20:48:23.188Z,133.33
2018-05-06T20:50:52.139Z,24.90
2018-05-06T20:53:21.070Z,45.53
2018-05-06T20:55:50.197Z,22.27
2018-05-06T20:58:19.406Z,19.63
2018-05-06T21:00:48.352Z,25.80
2018-05-06T21:03:17.313Z,18.00
2018-05-06T21:05:46.262Z,39.27
2018-05-06T21:08:15.196Z,20.47
2018-05-06T21:10:44.123Z,26.03
2018-05-06T21:13:13.052Z,19.03
2018-05-06T21:15:41.997Z,20.43
2018-05-06T21:18:10.948Z,18.00
2018-05-06T21:20:39.882Z,17.00
2018-05-06T21:23:09.131Z,147.73
2018-05-06T21:25:38.068Z,30.33
2018-05-06T21:28:07.069Z,68.93
2018-05-06T21:30:36.084Z,27.73
2018-05-06T21:33:05.025Z,19.67
2018-05-06T21:35:33.946Z,112.60
2018-05-06T21:38:02.879Z,36.37
2018-05-06T21:40:31.809Z,20.37
2018-05-06T21:43:00.736Z,18.10
2018-05-06T21:45:29.676Z,18.40
2018-05-06T21:47:58.633Z,18.83
2018-05-06T21:50:27.592Z,22.43
2018-05-06T21:52:56.598Z,41.13
2018-05-06T21:55:25.468Z,20.80
2018-05-06T21:57:54.394Z,22.70
2018-05-06T22:00:23.320Z,19.30
2018-05-06T22:02:52.312Z,22.20
2018-05-06T22:05:21.232Z,16.70
2018-05-06T22:07:50.265Z,17.77
2018-05-06T22:10:19.219Z,17.80
2018-05-06T22:12:48.148Z,17.13
2018-05-06T22:15:17.093Z,25.77
2018-05-06T22:17:46.309Z,16.73
2018-05-06T22:20:15.260Z,18.40
2018-05-06T22:22:44.188Z,18.30
2018-05-06T22:25:13.125Z,17.67
2018-05-06T22:27:42.053Z,17.33
2018-05-06T22:30:10.976Z,18.27
2018-05-06T22:32:39.901Z,18.27
2018-05-06T22:35:08.833Z,19.97
2018-05-06T22:37:37.805Z,20.37
2018-05-06T22:40:06.725Z,19.63
2018-05-06T22:42:35.650Z,21.10
2018-05-06T22:45:04.582Z,18.47
2018-05-06T22:47:33.500Z,18.93
2018-05-06T22:50:02.563Z,17.70
2018-05-06T22:52:31.497Z,19.07
2018-05-06T22:55:00.417Z,18.13
2018-05-06T22:57:29.353Z,19.50
2018-05-06T22:59:58.280Z,20.00
2018-05-06T23:02:27.211Z,20.10
2018-05-06T23:04:56.152Z,21.33
2018-05-06T23:07:25.077Z,20.87
2018-05-06T23:09:53.993Z,21.00
2018-05-06T23:12:22.936Z,18.57
2018-05-06T23:14:51.881Z,17.53
2018-05-06T23:17:20.860Z,20.53
2018-05-06T23:19:49.784Z,22.20
2018-05-06T23:22:18.804Z,22.17
2018-05-06T23:24:47.676Z,19.03
2018-05-06T23:27:16.592Z,18.93
2018-05-06T23:29:45.536Z,17.83
2018-05-06T23:32:14.489Z,17.27
2018-05-06T23:34:43.408Z,17.80
2018-05-06T23:37:12.373Z,17.30
2018-05-06T23:39:41.320Z,19.63
2018-05-06T23:42:10.252Z,18.07
2018-05-06T23:44:39.176Z,17.57
2018-05-06T23:47:08.124Z,17.67
2018-05-06T23:49:37.056Z,18.77
2018-05-06T23:52:06.036Z,18.20
2018-05-06T23:54:34.940Z,17.50
2018-05-06T23:57:03.864Z,17.87
2018-05-06T23:59:32.828Z,17.60
